createdAt,value
2023-01-20T00:01:34.114Z,3.22
2023-01-20T00:04:02.315Z,4.03
2023-01-20T00:06:31.778Z,3.42
2023-01-20T00:09:01.301Z,2.47
2023-01-20T00:11:29.914Z,2.80
2023-01-20T00:13:59.244Z,3.47
2023-01-20T00:16:28.341Z,2.47
2023-01-20T00:18:56.719Z,2.60
2023-01-20T00:21:24.831Z,3.05
2023-01-20T00:23:54.560Z,3.22
2023-01-20T00:26:25.322Z,3.08
2023-01-20T00:28:55.702Z,3.65
2023-01-20T00:31:25.544Z,3.45
2023-01-20T00:33:55.566Z,3.63
2023-01-20T00:36:24.552Z,2.75
2023-01-20T00:38:54.164Z,3.58
2023-01-20T00:41:22.162Z,3.88
2023-01-20T00:43:50.423Z,3.88
2023-01-20T00:46:18.669Z,4.93
2023-01-20T00:48:46.749Z,3.38
2023-01-20T00:51:14.916Z,4.55
2023-01-20T00:53:43.138Z,3.38
2023-01-20T00:56:12.501Z,3.60
2023-01-20T00:58:40.559Z,3.28
2023-01-20T01:01:08.940Z,3.15
2023-01-20T01:03:38.022Z,4.65
2023-01-20T01:06:12.690Z,3.63
2023-01-20T01:08:42.179Z,4.13
2023-01-20T01:11:13.014Z,3.60
2023-01-20T01:13:41.254Z,3.25
2023-01-20T01:16:12.374Z,3.97
2023-01-20T01:18:40.936Z,4.93
2023-01-20T01:21:09.812Z,3.88
2023-01-20T01:23:37.877Z,4.20
2023-01-20T01:26:06.475Z,3.47
2023-01-20T01:28:35.765Z,3.97
2023-01-20T01:31:04.162Z,3.47
2023-01-20T01:33:33.287Z,4.07
2023-01-20T01:36:03.167Z,3.83
2023-01-20T01:38:31.358Z,4.85
2023-01-20T01:40:59.290Z,3.08
2023-01-20T01:43:30.254Z,3.85
2023-01-20T01:45:59.751Z,2.47
2023-01-20T01:48:30.885Z,2.63
2023-01-20T01:51:03.465Z,3.47
2023-01-20T01:53:37.177Z,3.25
2023-01-20T01:56:05.948Z,3.80
2023-01-20T01:58:36.744Z,3.50
2023-01-20T02:01:06.436Z,4.13
2023-01-20T02:03:43.331Z,3.40
2023-01-20T02:06:12.351Z,2.75
2023-01-20T02:08:40.999Z,2.92
2023-01-20T02:11:09.051Z,2.05
2023-01-20T02:13:37.058Z,2.97
2023-01-20T02:16:16.042Z,2.30
2023-01-20T02:19:02.894Z,2.95
2023-01-20T02:22:01.711Z,3.20
2023-01-20T02:25:13.693Z,2.60
2023-01-20T02:28:08.490Z,3.55
2023-01-20T02:30:49.495Z,2.00
2023-01-20T02:33:24.708Z,2.15
2023-01-20T02:36:11.099Z,3.15
2023-01-20T02:38:44.049Z,2.97
2023-01-20T02:41:18.897Z,2.30
2023-01-20T02:43:51.977Z,2.50
2023-01-20T02:46:26.576Z,2.35
2023-01-20T02:49:01.734Z,3.97
2023-01-20T02:51:38.095Z,2.70
2023-01-20T02:54:09.550Z,2.83
2023-01-20T02:56:38.354Z,3.30
2023-01-20T02:59:12.396Z,2.88
2023-01-20T03:01:43.922Z,2.35
2023-01-20T03:04:16.460Z,4.13
2023-01-20T03:06:48.384Z,5.35
2023-01-20T03:09:21.069Z,3.33
2023-01-20T03:11:55.060Z,3.65
2023-01-20T03:14:23.433Z,3.33
2023-01-20T03:16:51.689Z,2.83
2023-01-20T03:19:21.597Z,3.60
2023-01-20T03:21:50.034Z,3.30
2023-01-20T03:24:18.033Z,4.20
2023-01-20T03:26:46.053Z,4.85
2023-01-20T03:29:16.009Z,2.80
2023-01-20T03:31:48.501Z,3.40
2023-01-20T03:34:19.387Z,4.00
2023-01-20T03:36:49.197Z,3.42
2023-01-20T03:39:18.110Z,3.10
2023-01-20T03:41:56.077Z,3.75
2023-01-20T03:44:33.546Z,2.85
2023-01-20T03:47:11.190Z,3.63
2023-01-20T03:49:45.941Z,3.33
2023-01-20T03:52:46.944Z,3.92
2023-01-20T03:55:17.550Z,4.18
2023-01-20T03:57:50.884Z,4.47
2023-01-20T04:00:22.587Z,4.15
2023-01-20T04:02:51.359Z,3.30
2023-01-20T04:05:19.710Z,3.53
2023-01-20T04:07:51.104Z,4.03
2023-01-20T04:10:20.018Z,4.88
2023-01-20T04:12:48.193Z,3.88
2023-01-20T04:15:18.027Z,5.05
2023-01-20T04:17:46.082Z,3.17
2023-01-20T04:20:16.233Z,3.90
2023-01-20T04:22:52.004Z,4.63
2023-01-20T04:25:29.371Z,4.75
2023-01-20T04:27:57.332Z,3.03
2023-01-20T04:30:25.614Z,3.63
2023-01-20T04:32:53.497Z,3.28
2023-01-20T04:35:21.675Z,4.60
2023-01-20T04:37:51.437Z,3.38
2023-01-20T04:40:19.543Z,4.20
2023-01-20T04:42:47.468Z,3.17
2023-01-20T04:45:17.003Z,4.43
2023-01-20T04:47:47.164Z,3.92
2023-01-20T04:50:16.467Z,5.22
2023-01-20T04:52:44.890Z,3.85
2023-01-20T04:55:15.023Z,4.55
2023-01-20T04:57:43.279Z,3.15
2023-01-20T05:00:18.545Z,2.58
2023-01-20T05:02:46.925Z,3.63
2023-01-20T05:05:15.331Z,4.38
2023-01-20T05:07:43.631Z,3.05
2023-01-20T05:10:13.356Z,4.75
2023-01-20T05:12:43.225Z,3.83
2023-01-20T05:15:11.728Z,1.95
2023-01-20T05:17:39.720Z,3.25
2023-01-20T05:20:08.435Z,4.45
2023-01-20T05:22:36.653Z,4.07
2023-01-20T05:25:04.872Z,2.95
2023-01-20T05:27:35.211Z,4.18
2023-01-20T05:30:05.538Z,3.53
2023-01-20T05:32:33.790Z,4.50
2023-01-20T05:35:01.687Z,4.47
2023-01-20T05:37:29.616Z,4.88
2023-01-20T05:39:57.616Z,4.03
2023-01-20T05:42:25.525Z,2.88
2023-01-20T05:44:53.386Z,3.33
2023-01-20T05:47:22.961Z,3.80
2023-01-20T05:49:51.321Z,3.45
2023-01-20T05:52:19.311Z,2.72
2023-01-20T05:54:47.238Z,3.72
2023-01-20T05:57:18.208Z,3.17
2023-01-20T05:59:47.619Z,4.15
2023-01-20T06:02:18.689Z,2.05
2023-01-20T06:04:48.267Z,2.88
2023-01-20T06:07:16.819Z,2.92
2023-01-20T06:09:44.792Z,2.75
2023-01-20T06:12:12.741Z,4.60
2023-01-20T06:14:40.547Z,5.00
2023-01-20T06:17:08.579Z,3.97
2023-01-20T06:19:36.456Z,3.47
2023-01-20T06:22:05.900Z,3.05
2023-01-20T06:24:33.851Z,4.25
2023-01-20T06:27:01.657Z,3.70
2023-01-20T06:29:29.555Z,4.35
2023-01-20T06:31:57.463Z,2.63
2023-01-20T06:34:25.950Z,2.80
2023-01-20T06:36:54.073Z,3.95
2023-01-20T06:39:23.453Z,4.03
2023-01-20T06:41:51.399Z,3.45
2023-01-20T06:44:19.433Z,2.97
2023-01-20T06:46:48.381Z,3.75
2023-01-20T06:49:16.392Z,5.82
2023-01-20T06:51:44.546Z,2.85
2023-01-20T06:54:18.168Z,3.60
2023-01-20T06:56:47.550Z,3.40
2023-01-20T06:59:15.508Z,4.15
2023-01-20T07:01:43.457Z,4.15
2023-01-20T07:04:14.982Z,4.78
2023-01-20T07:06:43.390Z,3.88
2023-01-20T07:09:13.583Z,5.05
2023-01-20T07:11:41.814Z,5.60
2023-01-20T07:14:11.358Z,4.63
2023-01-20T07:16:39.418Z,5.05
2023-01-20T07:19:07.575Z,3.47
2023-01-20T07:21:35.476Z,4.20
2023-01-20T07:24:03.316Z,3.88
2023-01-20T07:26:32.387Z,4.40
2023-01-20T07:29:00.839Z,5.18
2023-01-20T07:31:31.398Z,4.45
2023-01-20T07:34:00.088Z,4.75
2023-01-20T07:36:28.181Z,3.15
2023-01-20T07:38:56.233Z,4.35
2023-01-20T07:41:24.292Z,4.93
2023-01-20T07:43:53.689Z,4.57
2023-01-20T07:46:22.822Z,4.43
2023-01-20T07:48:52.056Z,4.50
2023-01-20T07:51:19.938Z,4.05
2023-01-20T07:53:50.785Z,5.85
2023-01-20T07:56:20.431Z,5.65
2023-01-20T07:58:50.518Z,4.35
2023-01-20T08:01:20.270Z,5.93
2023-01-20T08:03:49.001Z,5.30
2023-01-20T08:06:20.464Z,4.80
2023-01-20T08:08:49.435Z,4.95
2023-01-20T08:11:19.183Z,4.25
2023-01-20T08:13:48.224Z,5.05
2023-01-20T08:16:18.292Z,4.47
2023-01-20T08:18:46.913Z,4.70
2023-01-20T08:21:22.319Z,4.47
2023-01-20T08:23:50.693Z,4.28
2023-01-20T08:26:19.906Z,5.25
2023-01-20T08:28:48.908Z,5.20
2023-01-20T08:31:20.141Z,4.70
2023-01-20T08:33:49.588Z,4.22
2023-01-20T08:36:21.419Z,5.85
2023-01-20T08:38:49.793Z,5.93
2023-01-20T08:41:19.987Z,5.00
2023-01-20T08:43:47.989Z,3.58
2023-01-20T08:46:18.141Z,5.60
2023-01-20T08:48:46.468Z,6.88
2023-01-20T08:51:16.988Z,3.72
2023-01-20T08:53:46.312Z,5.53
2023-01-20T08:56:14.632Z,4.20
2023-01-20T08:58:42.601Z,4.97
2023-01-20T09:01:11.554Z,4.60
2023-01-20T09:03:39.948Z,4.50
2023-01-20T09:06:09.596Z,4.50
2023-01-20T09:08:38.202Z,3.97
2023-01-20T09:11:09.361Z,5.18
2023-01-20T09:13:37.483Z,4.47
2023-01-20T09:16:06.486Z,4.18
2023-01-20T09:18:36.050Z,5.93
2023-01-20T09:21:06.654Z,3.17
2023-01-20T09:23:35.948Z,3.97
2023-01-20T09:26:05.176Z,3.65
2023-01-20T09:28:35.130Z,3.90
2023-01-20T09:31:05.406Z,3.40
2023-01-20T09:33:36.057Z,4.43
2023-01-20T09:36:05.560Z,3.85
2023-01-20T09:38:51.017Z,3.25
2023-01-20T09:41:43.992Z,3.20
2023-01-20T09:44:32.828Z,4.43
2023-01-20T09:47:22.835Z,2.75
2023-01-20T09:50:25.511Z,3.13
2023-01-20T09:53:04.851Z,2.80
2023-01-20T09:55:39.783Z,2.58
2023-01-20T09:58:14.911Z,1.92
2023-01-20T10:00:49.016Z,3.08
2023-01-20T10:03:23.068Z,3.10
2023-01-20T10:05:53.900Z,3.80
2023-01-20T10:08:27.787Z,2.30
2023-01-20T10:11:04.359Z,2.97
2023-01-20T10:13:35.948Z,2.53
2023-01-20T10:16:12.440Z,1.80
2023-01-20T10:18:47.630Z,3.10
2023-01-20T10:21:21.695Z,2.88
2023-01-20T10:23:53.699Z,2.58
2023-01-20T10:26:27.608Z,2.03
2023-01-20T10:29:00.717Z,1.27
2023-01-20T10:31:34.644Z,1.52
2023-01-20T10:34:12.252Z,1.98
2023-01-20T10:36:44.665Z,3.20
2023-01-20T10:39:22.635Z,2.08
2023-01-20T10:41:54.643Z,1.88
2023-01-20T10:44:23.749Z,3.17
2023-01-20T10:47:08.590Z,1.98
2023-01-20T10:50:02.799Z,1.73
2023-01-20T10:52:45.148Z,2.05
2023-01-20T10:55:26.995Z,1.73
2023-01-20T10:58:00.101Z,2.20
2023-01-20T11:00:30.824Z,1.88
2023-01-20T11:03:03.250Z,1.52
2023-01-20T11:05:33.299Z,1.35
2023-01-20T11:08:03.145Z,2.03
2023-01-20T11:10:33.869Z,2.33
2023-01-20T11:13:03.265Z,2.53
2023-01-20T11:15:33.430Z,1.42
2023-01-20T11:18:24.244Z,3.25
2023-01-20T11:20:54.408Z,1.70
2023-01-20T11:23:24.580Z,0.95
2023-01-20T11:25:57.313Z,2.95
2023-01-20T11:28:26.060Z,1.73
2023-01-20T11:30:56.818Z,1.33
2023-01-20T11:33:28.261Z,1.17
2023-01-20T11:36:01.467Z,1.15
2023-01-20T11:38:30.588Z,2.10
2023-01-20T11:41:06.473Z,1.08
2023-01-20T11:43:37.814Z,0.52
2023-01-20T11:46:24.117Z,1.27
2023-01-20T11:49:13.447Z,1.15
2023-01-20T11:51:47.027Z,0.60
2023-01-20T11:54:17.823Z,0.93
2023-01-20T11:56:48.278Z,0.88
2023-01-20T11:59:29.110Z,1.83
2023-01-20T12:02:01.559Z,1.00
2023-01-20T12:04:44.265Z,0.75
2023-01-20T12:07:26.757Z,1.30
2023-01-20T12:09:59.359Z,0.57
2023-01-20T12:12:50.575Z,0.82
2023-01-20T12:15:22.824Z,0.82
2023-01-20T12:17:57.231Z,0.68
2023-01-20T12:20:31.937Z,0.63
2023-01-20T12:23:12.192Z,0.73
2023-01-20T12:25:47.607Z,2.88
2023-01-20T12:28:21.256Z,1.00
2023-01-20T12:30:57.212Z,1.10
2023-01-20T12:33:29.819Z,0.93
2023-01-20T12:36:28.475Z,0.38
2023-01-20T12:39:14.146Z,0.40
2023-01-20T12:42:05.849Z,0.50
2023-01-20T12:44:40.371Z,1.23
2023-01-20T12:47:21.898Z,0.43
2023-01-20T12:50:04.225Z,0.50
2023-01-20T12:52:47.167Z,0.63
2023-01-20T12:55:27.866Z,1.10
2023-01-20T12:58:08.346Z,0.52
2023-01-20T13:00:57.243Z,1.15
2023-01-20T13:03:56.919Z,0.80
2023-01-20T13:06:39.385Z,0.52
2023-01-20T13:09:25.786Z,0.40
2023-01-20T13:12:06.293Z,0.20
2023-01-20T13:14:40.670Z,0.90
2023-01-20T13:17:17.382Z,0.40
2023-01-20T13:19:48.264Z,0.77
2023-01-20T13:22:19.911Z,1.02
2023-01-20T13:24:49.792Z,0.40
2023-01-20T13:27:24.421Z,0.60
2023-01-20T13:30:06.915Z,1.17
2023-01-20T13:32:38.789Z,0.22
2023-01-20T13:35:44.260Z,0.82
2023-01-20T13:38:21.777Z,0.40
2023-01-20T13:40:55.846Z,0.68
2023-01-20T13:43:56.970Z,0.30
2023-01-20T13:46:47.673Z,0.60
2023-01-20T13:49:30.896Z,0.35
2023-01-20T13:51:58.921Z,0.77
2023-01-20T13:54:48.751Z,0.47
2023-01-20T13:57:46.482Z,0.50
2023-01-20T14:00:18.454Z,0.80
2023-01-20T14:02:48.560Z,0.50
2023-01-20T14:05:25.792Z,0.65
2023-01-20T14:08:00.492Z,0.65
2023-01-20T14:10:28.605Z,0.30
2023-01-20T14:12:56.576Z,0.75
2023-01-20T14:15:38.602Z,0.90
2023-01-20T14:18:15.022Z,0.40
2023-01-20T14:20:45.341Z,0.88
2023-01-20T14:23:33.809Z,0.63
2023-01-20T14:26:05.038Z,0.40
2023-01-20T14:28:33.175Z,0.65
2023-01-20T14:31:24.408Z,1.02
2023-01-20T14:33:57.633Z,0.40
2023-01-20T14:36:28.296Z,0.50
2023-01-20T14:38:58.830Z,0.20
2023-01-20T14:41:33.252Z,0.20
2023-01-20T14:44:01.956Z,0.40
2023-01-20T14:46:33.675Z,0.30
2023-01-20T14:49:02.549Z,0.52
2023-01-20T14:51:30.565Z,0.60
2023-01-20T14:54:40.041Z,0.45
2023-01-20T14:57:21.948Z,0.50
2023-01-20T15:00:02.934Z,0.50
2023-01-20T15:02:34.997Z,0.50
2023-01-20T15:05:37.317Z,0.20
2023-01-20T15:08:24.338Z,0.85
2023-01-20T15:11:22.424Z,0.47
2023-01-20T15:14:10.080Z,0.20
2023-01-20T15:16:49.647Z,0.32
2023-01-20T15:19:38.065Z,0.40
2023-01-20T15:22:18.693Z,0.40
2023-01-20T15:24:49.421Z,0.40
2023-01-20T15:27:30.391Z,0.85
2023-01-20T15:30:04.032Z,0.63
2023-01-20T15:32:31.741Z,0.63
2023-01-20T15:35:00.857Z,0.63
2023-01-20T15:37:28.577Z,1.10
2023-01-20T15:39:56.261Z,0.30
2023-01-20T15:42:24.288Z,1.45
2023-01-20T15:44:52.003Z,0.43
2023-01-20T15:47:21.890Z,0.40
2023-01-20T15:49:49.647Z,0.80
2023-01-20T15:52:19.323Z,0.50
2023-01-20T15:54:47.034Z,0.30
2023-01-20T15:57:15.806Z,0.63
2023-01-20T15:59:45.320Z,0.40
2023-01-20T16:02:18.587Z,0.20
2023-01-20T16:04:46.643Z,0.43
2023-01-20T16:07:16.318Z,0.52
2023-01-20T16:09:46.693Z,0.50
2023-01-20T16:12:15.230Z,0.40
2023-01-20T16:14:43.373Z,0.43
2023-01-20T16:17:15.809Z,0.28
2023-01-20T16:19:43.576Z,0.20
2023-01-20T16:22:13.374Z,0.50
2023-01-20T16:24:41.426Z,0.30
2023-01-20T16:27:18.146Z,0.10
2023-01-20T16:29:46.044Z,0.10
2023-01-20T16:32:17.129Z,0.10
2023-01-20T16:34:46.620Z,0.30
2023-01-20T16:37:15.015Z,0.20
2023-01-20T16:39:42.861Z,0.10
2023-01-20T16:42:14.446Z,0.20
2023-01-20T16:44:42.245Z,0.20
2023-01-20T16:47:10.258Z,0.10
2023-01-20T16:49:38.891Z,0.10
2023-01-20T16:52:06.775Z,0.10
2023-01-20T16:54:34.851Z,0.10
2023-01-20T16:57:02.595Z,0.10
2023-01-20T16:59:31.754Z,0.28
2023-01-20T17:01:59.477Z,0.10
2023-01-20T17:04:27.319Z,0.10
2023-01-20T17:06:55.080Z,0.00
2023-01-20T17:09:22.932Z,0.20
2023-01-20T17:11:50.640Z,0.10
2023-01-20T17:14:18.394Z,0.00
2023-01-20T17:16:47.404Z,0.10
2023-01-20T17:19:17.557Z,0.10
2023-01-20T17:21:45.473Z,0.10
2023-01-20T17:24:13.301Z,0.10
2023-01-20T17:26:41.348Z,0.10
2023-01-20T17:29:09.113Z,0.10
2023-01-20T17:31:37.290Z,0.10
2023-01-20T17:34:07.567Z,0.10
2023-01-20T17:36:35.573Z,0.30
2023-01-20T17:39:04.590Z,0.10
2023-01-20T17:41:32.553Z,0.10
2023-01-20T17:44:00.396Z,0.28
2023-01-20T17:46:30.169Z,0.52
2023-01-20T17:48:58.603Z,0.50
2023-01-20T17:51:29.783Z,0.10
2023-01-20T17:53:58.763Z,0.20
2023-01-20T17:56:27.397Z,0.20
2023-01-20T17:58:55.128Z,0.60
2023-01-20T18:01:25.539Z,0.20
2023-01-20T18:03:55.308Z,0.30
2023-01-20T18:06:24.303Z,0.10
2023-01-20T18:08:55.431Z,0.32
2023-01-20T18:11:24.090Z,0.10
2023-01-20T18:13:53.403Z,0.13
2023-01-20T18:16:22.427Z,0.20
2023-01-20T18:18:50.800Z,0.20
2023-01-20T18:21:20.190Z,0.10
2023-01-20T18:23:49.945Z,0.20
2023-01-20T18:26:21.214Z,0.95
2023-01-20T18:28:49.469Z,0.20
2023-01-20T18:31:19.975Z,0.50
2023-01-20T18:33:50.100Z,0.80
2023-01-20T18:36:19.878Z,0.57
2023-01-20T18:38:51.102Z,0.75
2023-01-20T18:41:20.978Z,0.75
2023-01-20T18:43:49.875Z,1.05
2023-01-20T18:46:18.037Z,0.55
2023-01-20T18:48:48.919Z,0.85
2023-01-20T18:51:20.349Z,0.45
2023-01-20T18:53:54.875Z,0.52
2023-01-20T18:56:25.185Z,0.50
2023-01-20T18:58:54.698Z,0.80
2023-01-20T19:01:25.156Z,0.57
2023-01-20T19:03:54.160Z,1.63
2023-01-20T19:06:24.615Z,0.80
2023-01-20T19:08:53.560Z,0.30
2023-01-20T19:11:25.569Z,0.52
2023-01-20T19:13:54.775Z,0.63
2023-01-20T19:16:24.899Z,0.60
2023-01-20T19:18:54.682Z,0.32
2023-01-20T19:21:24.258Z,0.70
2023-01-20T19:23:53.843Z,0.75
2023-01-20T19:26:23.313Z,1.63
2023-01-20T19:28:57.886Z,1.80
2023-01-20T19:31:26.048Z,1.13
2023-01-20T19:33:56.217Z,0.50
2023-01-20T19:36:28.156Z,0.40
2023-01-20T19:39:00.912Z,2.08
2023-01-20T19:41:37.655Z,1.45
2023-01-20T19:44:18.977Z,1.38
2023-01-20T19:46:48.580Z,1.23
2023-01-20T19:49:16.470Z,1.88
2023-01-20T19:51:44.264Z,1.08
2023-01-20T19:54:14.514Z,0.63
2023-01-20T19:56:42.450Z,1.00
2023-01-20T19:59:13.522Z,1.00
2023-01-20T20:01:41.548Z,1.10
2023-01-20T20:04:12.785Z,1.17
2023-01-20T20:06:45.661Z,1.30
2023-01-20T20:09:17.661Z,1.92
2023-01-20T20:11:45.876Z,2.03
2023-01-20T20:14:16.871Z,2.42
2023-01-20T20:16:44.638Z,1.55
2023-01-20T20:19:14.156Z,1.58
2023-01-20T20:21:41.883Z,1.73
2023-01-20T20:24:15.800Z,1.30
2023-01-20T20:26:45.531Z,2.17
2023-01-20T20:29:15.914Z,1.83
2023-01-20T20:31:43.749Z,2.72
2023-01-20T20:34:14.560Z,1.23
2023-01-20T20:36:42.385Z,2.85
2023-01-20T20:39:13.341Z,3.50
2023-01-20T20:41:41.435Z,2.10
2023-01-20T20:44:10.911Z,1.60
2023-01-20T20:46:40.589Z,1.52
2023-01-20T20:49:09.783Z,1.80
2023-01-20T20:51:37.471Z,3.40
2023-01-20T20:54:05.199Z,1.55
2023-01-20T20:56:32.925Z,2.65
2023-01-20T20:59:03.056Z,3.53
2023-01-20T21:01:33.405Z,2.50
2023-01-20T21:04:03.690Z,2.63
2023-01-20T21:06:32.428Z,2.47
2023-01-20T21:09:00.615Z,2.50
2023-01-20T21:11:28.921Z,3.83
2023-01-20T21:13:56.864Z,4.22
2023-01-20T21:16:25.621Z,3.47
2023-01-20T21:18:55.983Z,3.47
2023-01-20T21:21:28.824Z,2.72
2023-01-20T21:23:58.435Z,3.80
2023-01-20T21:26:30.180Z,4.35
2023-01-20T21:29:00.159Z,3.20
2023-01-20T21:31:28.072Z,3.63
2023-01-20T21:33:58.277Z,3.13
2023-01-20T21:36:28.787Z,3.50
2023-01-20T21:38:56.549Z,5.25
2023-01-20T21:41:24.298Z,3.17
2023-01-20T21:44:09.543Z,4.53
2023-01-20T21:46:39.878Z,4.07
2023-01-20T21:49:25.751Z,5.07
2023-01-20T21:52:12.714Z,5.32
2023-01-20T21:54:41.275Z,5.25
2023-01-20T21:57:09.925Z,4.85
2023-01-20T21:59:37.722Z,4.10
2023-01-20T22:02:05.683Z,5.95
2023-01-20T22:04:33.794Z,6.25
2023-01-20T22:07:02.884Z,5.13
2023-01-20T22:09:30.848Z,6.65
2023-01-20T22:11:58.623Z,4.53
2023-01-20T22:14:26.427Z,5.35
2023-01-20T22:16:54.214Z,5.93
2023-01-20T22:19:21.959Z,4.82
2023-01-20T22:21:49.762Z,5.03
2023-01-20T22:24:19.219Z,5.90
2023-01-20T22:26:47.973Z,4.80
2023-01-20T22:29:15.956Z,5.90
2023-01-20T22:31:44.000Z,5.28
2023-01-20T22:34:12.140Z,4.82
2023-01-20T22:36:40.615Z,4.35
2023-01-20T22:39:08.724Z,5.60
2023-01-20T22:41:37.769Z,4.90
2023-01-20T22:44:05.476Z,6.07
2023-01-20T22:46:33.529Z,5.45
2023-01-20T22:49:01.296Z,5.65
2023-01-20T22:51:30.720Z,5.45
2023-01-20T22:54:02.754Z,4.15
2023-01-20T22:56:32.173Z,5.35
2023-01-20T22:59:01.780Z,4.47
2023-01-20T23:01:32.341Z,4.60
2023-01-20T23:04:02.351Z,4.82
2023-01-20T23:06:32.572Z,4.57
2023-01-20T23:09:00.598Z,5.60
2023-01-20T23:11:28.804Z,5.78
2023-01-20T23:13:56.676Z,6.28
2023-01-20T23:16:25.872Z,5.63
2023-01-20T23:18:53.711Z,6.53
2023-01-20T23:21:22.666Z,5.00
2023-01-20T23:23:54.216Z,6.28
2023-01-20T23:26:23.987Z,6.40
2023-01-20T23:28:53.437Z,6.20
2023-01-20T23:31:22.198Z,5.30
2023-01-20T23:33:51.681Z,6.30
2023-01-20T23:36:21.520Z,6.03
2023-01-20T23:38:49.687Z,6.15
2023-01-20T23:41:20.879Z,6.07
2023-01-20T23:43:48.788Z,4.47
2023-01-20T23:46:16.525Z,6.55
2023-01-20T23:48:46.166Z,6.75
2023-01-20T23:51:15.835Z,5.30
2023-01-20T23:53:44.175Z,6.18
2023-01-20T23:56:15.157Z,6.35
2023-01-20T23:58:43.027Z,8.25
